CheckWX is a tool to help pilots better visualize weather data.  It is not intended as a substitute for an official pre-flight weather briefing.

15:20:34 UTC

LQBK METAR
Banja Luka International Airport
Banja Luka, Bosnia and Herzegovina
Current

21 mins ago

LQBK 281500Z 01005KT 9999 SCT040 21/11 Q1020 NOSIG
Observed
May-28 @ 15:00 UTC
Wind
  • 010° at 5 KTS
Visibility
10,000+ meters
Flight Rules
VFR
Cloud Levels
  • Scattered at 4,000' AGL
Temperature
21°C / 70°F
Dewpoint
11°C / 52°F
Humidity
53%
Altimeter
30.12" Hg
Pressure
1019.92 hPa
Previous

51 mins ago

LQBK 281430Z 01008KT 9999 SCT037 20/11 Q1020 NOSIG
Observed
May-28 @ 14:30 UTC
Wind
  • 010° at 8 KTS
Visibility
10,000+ meters
Flight Rules
VFR
Cloud Levels
  • Scattered at 3,700' AGL
Temperature
20°C / 68°F
Dewpoint
11°C / 52°F
Humidity
56%
Altimeter
30.12" Hg
Pressure
1019.92 hPa
Previous

1 hour ago

LQBK 281400Z 29006KT 9999 SCT037 22/11 Q1020 NOSIG
Observed
May-28 @ 14:00 UTC
Wind
  • 290° at 6 KTS
Visibility
10,000+ meters
Flight Rules
VFR
Cloud Levels
  • Scattered at 3,700' AGL
Temperature
22°C / 72°F
Dewpoint
11°C / 52°F
Humidity
50%
Altimeter
30.12" Hg
Pressure
1019.92 hPa